Weather at Southern Wisconsin Regional Airport

Public forecast

Using degrees Fahrenheit for public forecast. Weather courtesy of forecast.io.

Current aviation weather report (METAR) for Southern Wisconsin Regional Airport

Retrieved 2020/11/28 11:45 UTC (52 minutes ago):

KJVL 281145Z 22005KT 10SM CLR M03/M05 A3013 RMK FIRST

Aviation forecast (TAF) for Southern Wisconsin Regional Airport

Retrieved 2020/11/28 12:38 UTC (0 seconds ago):

TAF KJVL 281136Z 2812/2912 21005KT P6SM SKC FM281600 23010KT P6SM SKC FM281800 23012G20KT P6SM SKC FM290600 22006KT P6SM SKC